Terminal Aerodrome Forecast
Issued by NWS

Home | Current Version | Previous Version | Text Only | Print | Product List | Glossary On
Versions: 1 2 3 4 5 6 7 8 9 10 11 12 13 14
000
FTUS44 KLZK 272300
TAFADF
TAF
KADF 272320Z 2800/2824 35005KT P6SM VCSH BKN015 OVC035
     FM280100 34005KT P6SM -RA SCT008 BKN012
      TEMPO 2801/2805 3SM RA BKN005
     FM280500 01004KT 5SM -DZ VCSH BKN008
      TEMPO 2805/2809 -RA BKN004
     FM280900 36004KT P6SM SCT008 OVC015
     FM281800 VRB03KT P6SM SCT025 SCT080=

USA.gov is the U.S. government's official web portal to all federal, state and local government web resources and services.